Ione, Nevada
Current Conditions -  °F | °C
As of 8:53 PM on Monday 22 Dec 2014 (Local Time) from KLOL Reporting Station
Clear Clear  
Wind Chill: 38°   Ceiling: Unl
Heat Index: 42°   Visibility: 10mi
Dew Point: 38°   Wind: 7mph
Humidity: 85%   Direction: 20°NNE
Pressure: 30.32"   Gusts: NA
Location:  39.7407°N, 117.085°W
Report Text: KLOL 230453Z AUTO 02006KT 10SM CLR 06/03 A3032 RMK AO2 SLP274 T00560033
Loading
Personal Weather Stations






























Interactive Weather Map New forecast layout! Learn more

10-Day Weather Forecast

Advertisements
Track Severe Weather on mobile